Roy Baker — WDC2698 — position and weather

sailwx.info

Track history (hours):
 
Tides and Currents Weather Stations Pressure Air Temp Water Temp Dewpoint Dewpoint Depression Visibility Wind Speed Wind Dir Waves Ship Positions

Roy Baker

Owner: Kirby Inland Marine LP, Houston, TX. More information available from US FCC via Universal Licensing System and Coast Guard Vessel Documentation Center.

Last reported at 2016-Nov-20 14:33 UTC. Time now 2016-Dec-03 00:19 UTC.
Position N 30°04' W 093°31'.
Warning: this ship's position is 12 days out of date.

Length 113 m; draft 2.1 m.

Type: . MMSI: 366996540.

Date/timePositionNaut miles runAvg speedWind from/ knotsBaromVisibWave heightAir tempDewpointWater temp
2016-Nov-20 14:33N 30°04' W 093°31'7 7.2
2016-Nov-20 13:33N 30°04' W 093°22'5 4.5
2016-Nov-20 12:33N 30°05' W 093°18'2 0.7
2016-Nov-20 09:32N 30°04' W 093°16'4 3.8
2016-Nov-20 08:33N 30°00' W 093°14'5 4.9
2016-Nov-20 07:33N 29°57' W 093°10'5 5.3
2016-Nov-20 06:33N 29°56' W 093°04'32 6.2
2016-Nov-20 01:26N 29°54' W 092°28'9 4.9
2016-Nov-19 23:33N 29°50' W 092°18'6 6.1
2016-Nov-19 22:33N 29°47' W 092°12'1 0.4
2016-Nov-19 20:32N 29°47' W 092°11'3 3.6
2016-Nov-19 19:33N 29°47' W 092°07'  
Track history (hours):
 
Tides and Currents Weather Stations Pressure Air Temp Water Temp Dewpoint Dewpoint Depression Visibility Wind Speed Wind Dir Waves Ship Positions

Roy Baker

Owner: Kirby Inland Marine LP, Houston, TX. More information available from US FCC via Universal Licensing System and Coast Guard Vessel Documentation Center.

Last reported at 2016-Nov-20 14:33 UTC. Time now 2016-Dec-03 00:19 UTC.
Position N 30°04' W 093°31'.
Warning: this ship's position is 12 days out of date.

Length 113 m; draft 2.1 m.

Type: . MMSI: 366996540.

Date/timePositionNaut miles runAvg speedWind from/ knotsBaromVisibWave heightAir tempDewpointWater temp
2016-Nov-20 14:33N 30°04' W 093°31'7 7.2
2016-Nov-20 13:33N 30°04' W 093°22'5 4.5
2016-Nov-20 12:33N 30°05' W 093°18'2 0.7
2016-Nov-20 09:32N 30°04' W 093°16'4 3.8
2016-Nov-20 08:33N 30°00' W 093°14'5 4.9
2016-Nov-20 07:33N 29°57' W 093°10'5 5.3
2016-Nov-20 06:33N 29°56' W 093°04'32 6.2
2016-Nov-20 01:26N 29°54' W 092°28'9 4.9
2016-Nov-19 23:33N 29°50' W 092°18'6 6.1
2016-Nov-19 22:33N 29°47' W 092°12'1 0.4
2016-Nov-19 20:32N 29°47' W 092°11'3 3.6
2016-Nov-19 19:33N 29°47' W 092°07'  

Dump ship's entire track history